Time;durP1;ratioP1;P1;durP2;ratioP2;P2;SDS_P1;SDS_P2;PMS_P1;PMS_P2;Temp;Humidity;BMP_temperature;BMP_pressure;BME280_temperature;BME280_humidity;BME280_pressure;Samples;Min_cycle;Max_cycle;Signal;HPM_P1;HPM_P2
2022/07/09 00:00:35;;;;;;;12.57;5.00;;;17.90;99.90;;;;;;4974325;28;20231;-71
2022/07/09 00:03:01;;;;;;;11.80;5.07;;;17.80;99.90;;;;;;4974342;28;20133;-69
2022/07/09 00:05:27;;;;;;;13.00;5.37;;;17.80;99.90;;;;;;4974237;28;20054;-69
2022/07/09 00:07:52;;;;;;;9.73;5.17;;;17.80;99.90;;;;;;4974346;28;20087;-69
2022/07/09 00:10:18;;;;;;;12.37;5.40;;;17.70;99.90;;;;;;4973972;28;20113;-69
2022/07/09 00:12:44;;;;;;;9.90;5.17;;;17.70;99.90;;;;;;4974142;28;20054;-69
2022/07/09 00:15:10;;;;;;;13.73;5.40;;;17.70;99.90;;;;;;4973783;28;20046;-70
2022/07/09 00:17:35;;;;;;;12.87;5.47;;;17.80;99.90;;;;;;4974230;28;20082;-69
2022/07/09 00:20:04;;;;;;;12.13;5.83;;;17.80;99.90;;;;;;4974203;28;20050;-69
2022/07/09 00:22:31;;;;;;;13.53;5.40;;;17.80;99.90;;;;;;4973860;28;20149;-69
2022/07/09 00:24:57;;;;;;;15.07;7.23;;;17.90;99.90;;;;;;4974282;28;20117;-69
2022/07/09 00:27:23;;;;;;;13.37;5.70;;;17.90;99.90;;;;;;4973506;28;20133;-69
2022/07/09 00:29:49;;;;;;;11.07;5.23;;;17.90;99.90;;;;;;4973945;28;20129;-69
2022/07/09 00:32:14;;;;;;;12.50;6.73;;;17.90;99.90;;;;;;4973934;28;20046;-70
2022/07/09 00:34:40;;;;;;;12.97;6.10;;;17.90;99.90;;;;;;4974069;28;20054;-69
2022/07/09 00:37:06;;;;;;;12.07;5.93;;;17.90;99.90;;;;;;4972873;28;20050;-69
2022/07/09 00:39:31;;;;;;;10.03;5.70;;;17.90;99.90;;;;;;4973612;28;20050;-69
2022/07/09 00:42:09;;;;;;;14.90;7.20;;;17.90;99.90;;;;;;4973774;28;20043;-69
2022/07/09 00:44:35;;;;;;;18.20;6.70;;;18.00;99.90;;;;;;4973754;28;20394;-69
2022/07/09 00:47:01;;;;;;;12.20;6.37;;;17.90;99.90;;;;;;4973997;28;20126;-69
2022/07/09 00:49:30;;;;;;;15.40;7.87;;;17.90;99.90;;;;;;4973653;28;20058;-69
2022/07/09 00:51:56;;;;;;;16.20;6.83;;;17.90;99.90;;;;;;4973706;28;20513;-69
2022/07/09 00:54:23;;;;;;;15.63;8.03;;;17.90;99.90;;;;;;4972656;28;20051;-69
2022/07/09 00:56:51;;;;;;;12.50;7.17;;;17.90;99.90;;;;;;4973635;28;20086;-69
2022/07/09 00:59:18;;;;;;;15.23;7.37;;;17.90;99.90;;;;;;4973667;28;20061;-69
2022/07/09 01:01:43;;;;;;;16.17;8.17;;;17.90;99.90;;;;;;4974064;28;20459;-69
2022/07/09 01:04:09;;;;;;;13.47;7.57;;;17.90;99.90;;;;;;4975884;28;20126;-69
2022/07/09 01:06:35;;;;;;;16.30;9.20;;;17.80;99.90;;;;;;4977322;28;20963;-69
2022/07/09 01:09:02;;;;;;;14.03;7.63;;;17.80;99.90;;;;;;4976325;28;20051;-69
2022/07/09 01:11:28;;;;;;;13.53;6.97;;;17.80;99.90;;;;;;4976933;28;20113;-69
2022/07/09 01:13:54;;;;;;;13.30;7.17;;;17.80;99.90;;;;;;4976583;28;20055;-69
2022/07/09 01:16:20;;;;;;;11.70;8.07;;;17.80;99.90;;;;;;4977137;28;20127;-70
2022/07/09 01:18:47;;;;;;;13.00;7.23;;;17.80;99.90;;;;;;4977302;28;20070;-69
2022/07/09 01:21:14;;;;;;;23.13;7.40;;;17.80;99.90;;;;;;4977238;28;20051;-69
2022/07/09 01:23:40;;;;;;;13.03;7.03;;;17.80;99.90;;;;;;4976795;28;20043;-69
2022/07/09 01:26:06;;;;;;;14.90;7.57;;;17.80;99.90;;;;;;4976944;28;20055;-69
2022/07/09 01:28:32;;;;;;;16.07;8.07;;;17.80;99.90;;;;;;4976583;28;20061;-69
2022/07/09 01:30:58;;;;;;;15.57;7.43;;;17.80;99.90;;;;;;4977057;28;20129;-69
2022/07/09 01:33:24;;;;;;;14.50;7.23;;;17.80;99.90;;;;;;4975841;28;20055;-70
2022/07/09 01:35:50;;;;;;;13.33;6.73;;;17.70;99.90;;;;;;4977106;28;20094;-69
2022/07/09 01:38:15;;;;;;;12.50;7.37;;;17.70;99.90;;;;;;4976906;28;20082;-69
2022/07/09 01:40:41;;;;;;;12.63;7.13;;;17.80;99.90;;;;;;4975607;28;20498;-69
2022/07/09 01:43:07;;;;;;;15.20;7.17;;;17.70;99.90;;;;;;4975789;28;20043;-69
2022/07/09 01:45:32;;;;;;;14.13;6.83;;;17.70;99.90;;;;;;4975701;28;20047;-69
2022/07/09 01:47:58;;;;;;;12.00;6.07;;;17.70;99.90;;;;;;4976928;28;20043;-69
2022/07/09 01:50:24;;;;;;;12.73;6.70;;;17.60;99.90;;;;;;4976276;28;20479;-69
2022/07/09 01:52:50;;;;;;;14.10;6.23;;;17.60;99.90;;;;;;4976546;28;20049;-69
2022/07/09 01:55:16;;;;;;;12.03;6.00;;;17.60;99.90;;;;;;4976499;28;20061;-69
2022/07/09 01:57:42;;;;;;;10.93;5.50;;;17.60;99.90;;;;;;4976324;28;20133;-69
2022/07/09 02:00:08;;;;;;;10.97;6.13;;;17.60;99.90;;;;;;4976672;28;20113;-69
2022/07/09 02:02:33;;;;;;;11.43;5.60;;;17.60;99.90;;;;;;4976101;28;20089;-69
2022/07/09 02:04:59;;;;;;;15.43;5.67;;;17.60;99.90;;;;;;4976463;28;20055;-69
2022/07/09 02:07:25;;;;;;;12.20;5.30;;;17.60;99.90;;;;;;4976141;28;20129;-70
2022/07/09 02:09:51;;;;;;;12.37;6.50;;;17.60;99.90;;;;;;4976231;28;20051;-69
2022/07/09 02:12:17;;;;;;;15.07;5.77;;;17.60;99.90;;;;;;4975030;28;20554;-69
2022/07/09 02:14:44;;;;;;;11.33;5.17;;;17.60;99.90;;;;;;4975901;28;20162;-69
2022/07/09 02:17:09;;;;;;;9.97;5.30;;;17.50;99.90;;;;;;4975249;28;20483;-68
2022/07/09 02:19:35;;;;;;;11.30;5.07;;;17.60;99.90;;;;;;4975943;28;20043;-70
2022/07/09 02:22:01;;;;;;;12.70;4.90;;;17.60;99.90;;;;;;4976017;28;20407;-69
2022/07/09 02:24:27;;;;;;;11.80;5.27;;;17.50;99.90;;;;;;4975636;28;20057;-70
2022/07/09 02:26:53;;;;;;;10.80;5.20;;;17.60;99.90;;;;;;4976114;28;20055;-69
2022/07/09 02:29:20;;;;;;;12.33;5.43;;;17.50;99.90;;;;;;4976169;28;20090;-69
2022/07/09 02:31:45;;;;;;;12.47;5.80;;;17.60;99.90;;;;;;4975797;28;20055;-69
2022/07/09 02:34:11;;;;;;;12.47;5.10;;;17.60;99.90;;;;;;4974901;28;20137;-69
2022/07/09 02:36:37;;;;;;;12.50;5.40;;;17.60;99.90;;;;;;4975710;28;20043;-69
2022/07/09 02:39:02;;;;;;;10.97;4.97;;;17.60;99.90;;;;;;4975572;28;20043;-69
2022/07/09 02:41:28;;;;;;;12.40;5.07;;;17.60;99.90;;;;;;4975595;28;20046;-70
2022/07/09 02:43:54;;;;;;;10.40;4.60;;;17.60;99.90;;;;;;4975751;28;20499;-69
2022/07/09 02:46:19;;;;;;;8.93;3.90;;;17.60;99.90;;;;;;4975679;28;20514;-69
2022/07/09 02:48:45;;;;;;;12.20;5.10;;;17.60;99.90;;;;;;4975305;28;20129;-69
2022/07/09 02:51:11;;;;;;;10.30;4.63;;;17.70;99.90;;;;;;4975589;28;20051;-69
2022/07/09 02:53:36;;;;;;;9.07;4.10;;;17.60;99.90;;;;;;4975033;28;20450;-69
2022/07/09 02:56:02;;;;;;;10.30;4.13;;;17.60;99.90;;;;;;4975547;28;20451;-70
2022/07/09 02:58:28;;;;;;;9.90;4.70;;;17.60;99.90;;;;;;4975392;28;20145;-70
2022/07/09 03:00:53;;;;;;;10.33;4.40;;;17.60;99.90;;;;;;4975600;28;20497;-69
2022/07/09 03:03:20;;;;;;;8.07;3.87;;;17.50;99.90;;;;;;4975254;28;20039;-69
2022/07/09 03:05:45;;;;;;;9.13;4.00;;;17.50;99.90;;;;;;4975016;28;20396;-69
2022/07/09 03:08:11;;;;;;;11.90;5.37;;;17.50;99.90;;;;;;4975154;28;20074;-69
2022/07/09 03:10:37;;;;;;;9.87;4.70;;;17.50;99.90;;;;;;4975108;28;20475;-70
2022/07/09 03:13:02;;;;;;;8.60;4.63;;;17.50;99.90;;;;;;4975386;28;20051;-69
2022/07/09 03:15:28;;;;;;;7.70;4.03;;;17.50;99.90;;;;;;4974991;28;20082;-69
2022/07/09 03:17:54;;;;;;;8.53;4.83;;;17.40;99.90;;;;;;4974838;28;20078;-70
2022/07/09 03:20:19;;;;;;;12.87;5.50;;;17.30;99.90;;;;;;4974944;28;20081;-69
2022/07/09 03:22:45;;;;;;;9.33;5.33;;;17.30;99.90;;;;;;4974520;28;20467;-70
2022/07/09 03:25:11;;;;;;;12.97;5.40;;;17.30;99.90;;;;;;4975160;28;20477;-69
2022/07/09 03:27:36;;;;;;;11.80;5.03;;;17.30;99.90;;;;;;4973867;28;20193;-70
2022/07/09 03:30:04;;;;;;;13.77;5.83;;;17.40;99.90;;;;;;4974944;28;20414;-69
2022/07/09 03:32:30;;;;;;;11.17;4.80;;;17.40;99.90;;;;;;4974717;28;20549;-69
2022/07/09 03:34:56;;;;;;;9.17;4.10;;;17.40;99.90;;;;;;4974420;28;20108;-69
2022/07/09 03:37:22;;;;;;;10.30;4.80;;;17.30;99.90;;;;;;4973373;28;20121;-69
2022/07/09 03:39:48;;;;;;;10.70;5.83;;;17.30;99.90;;;;;;4974546;28;20364;-69
2022/07/09 03:42:14;;;;;;;9.57;4.67;;;17.30;99.90;;;;;;4974708;28;20144;-69
2022/07/09 03:44:40;;;;;;;9.80;4.87;;;17.30;99.90;;;;;;4974334;28;20185;-69
2022/07/09 03:47:06;;;;;;;11.57;5.60;;;17.30;99.90;;;;;;4974638;28;20094;-69
2022/07/09 03:49:33;;;;;;;8.77;5.20;;;17.30;99.90;;;;;;4974491;28;20513;-69
2022/07/09 03:51:59;;;;;;;10.27;5.50;;;17.30;99.90;;;;;;4974378;28;20042;-69
2022/07/09 03:54:24;;;;;;;10.20;5.10;;;17.30;99.90;;;;;;4974590;28;20386;-69
2022/07/09 03:56:51;;;;;;;9.00;5.20;;;17.30;99.90;;;;;;4973085;28;20053;-69
2022/07/09 03:59:17;;;;;;;13.17;6.37;;;17.30;99.90;;;;;;4974412;28;20065;-69
2022/07/09 04:01:43;;;;;;;10.93;5.70;;;17.30;99.90;;;;;;4973075;28;20047;-69
2022/07/09 04:04:09;;;;;;;12.47;6.07;;;17.30;99.90;;;;;;4974294;28;20047;-69
2022/07/09 04:06:34;;;;;;;10.20;5.80;;;17.40;99.90;;;;;;4974125;28;20043;-69
2022/07/09 04:09:04;;;;;;;10.43;5.80;;;17.40;99.90;;;;;;4974207;28;20043;-69
2022/07/09 04:11:31;;;;;;;9.63;5.43;;;17.40;99.90;;;;;;4974313;28;20054;-69
2022/07/09 04:13:58;;;;;;;9.83;5.40;;;17.40;99.90;;;;;;4973972;28;20149;-69
2022/07/09 04:16:23;;;;;;;9.40;5.70;;;17.40;99.90;;;;;;4974394;28;20061;-70
2022/07/09 04:18:49;;;;;;;10.57;6.20;;;17.40;99.90;;;;;;4973921;28;20133;-70
2022/07/09 04:21:16;;;;;;;10.87;5.80;;;17.40;99.90;;;;;;4974048;28;20042;-70
2022/07/09 04:23:42;;;;;;;11.80;5.50;;;17.40;99.90;;;;;;4973964;28;20074;-70
2022/07/09 04:26:08;;;;;;;12.37;6.20;;;17.50;99.90;;;;;;4974097;28;20495;-70
2022/07/09 04:28:36;;;;;;;10.70;5.70;;;17.50;99.90;;;;;;4973956;28;20066;-69
2022/07/09 04:31:02;;;;;;;11.70;5.40;;;17.50;99.90;;;;;;4973722;28;20086;-70
2022/07/09 04:33:27;;;;;;;10.60;5.60;;;17.50;99.90;;;;;;4972504;28;20085;-71
2022/07/09 04:35:53;;;;;;;13.70;5.73;;;17.60;99.90;;;;;;4974032;28;20042;-71
2022/07/09 04:38:18;;;;;;;12.17;5.50;;;17.60;99.90;;;;;;4974024;28;20502;-71
2022/07/09 04:40:44;;;;;;;11.37;5.40;;;17.60;99.90;;;;;;4977996;28;20042;-70
2022/07/09 04:43:10;;;;;;;8.73;5.50;;;17.60;99.90;;;;;;4977849;28;20043;-71
2022/07/09 04:45:36;;;;;;;12.17;5.30;;;17.60;99.90;;;;;;4977971;28;20061;-69
2022/07/09 04:48:01;;;;;;;9.47;5.83;;;17.60;99.90;;;;;;4977505;28;20047;-69
2022/07/09 04:50:27;;;;;;;10.13;5.00;;;17.60;99.90;;;;;;4977637;28;20506;-69
2022/07/09 04:52:53;;;;;;;12.87;5.27;;;17.60;99.90;;;;;;4977678;28;20050;-70
2022/07/09 04:55:21;;;;;;;8.87;4.50;;;17.60;99.90;;;;;;4977719;28;20045;-69
2022/07/09 04:57:47;;;;;;;10.13;5.07;;;17.60;99.90;;;;;;4977472;28;20054;-70
2022/07/09 05:00:13;;;;;;;9.80;4.40;;;17.60;99.90;;;;;;4977739;28;20054;-70
2022/07/09 05:02:39;;;;;;;7.47;4.10;;;17.70;99.90;;;;;;4977329;28;20049;-69
2022/07/09 05:05:06;;;;;;;11.20;4.50;;;17.70;99.90;;;;;;4977387;28;20463;-69
2022/07/09 05:07:33;;;;;;;9.10;4.10;;;17.70;99.90;;;;;;4977654;28;20054;-69
2022/07/09 05:10:01;;;;;;;8.93;4.00;;;17.70;99.90;;;;;;4977216;28;20047;-69
2022/07/09 05:12:27;;;;;;;9.87;4.13;;;17.80;99.90;;;;;;4977446;28;20410;-69
2022/07/09 05:14:53;;;;;;;7.13;4.63;;;17.80;99.90;;;;;;4977082;28;20053;-69
2022/07/09 05:17:18;;;;;;;8.73;4.13;;;17.90;99.90;;;;;;4976225;28;20047;-69
2022/07/09 05:19:44;;;;;;;5.97;3.70;;;17.90;99.90;;;;;;4976775;28;20061;-70
2022/07/09 05:22:10;;;;;;;10.63;3.90;;;18.00;99.90;;;;;;4976218;28;20089;-69
2022/07/09 05:24:36;;;;;;;7.50;3.10;;;18.00;99.90;;;;;;4977190;28;20070;-69
2022/07/09 05:27:02;;;;;;;9.23;3.90;;;18.10;99.90;;;;;;4975892;28;20054;-69
2022/07/09 05:29:27;;;;;;;8.70;3.97;;;18.20;99.90;;;;;;4975578;28;20098;-69
2022/07/09 05:31:53;;;;;;;8.40;4.10;;;18.20;99.90;;;;;;4975493;28;20050;-70
2022/07/09 05:34:19;;;;;;;9.23;3.60;;;18.20;99.90;;;;;;4977149;28;20055;-69
2022/07/09 05:36:44;;;;;;;11.00;3.67;;;18.30;99.90;;;;;;4975936;28;20050;-69
2022/07/09 05:39:10;;;;;;;8.67;3.93;;;18.30;99.90;;;;;;4976854;28;20051;-70
2022/07/09 05:41:36;;;;;;;8.63;4.53;;;18.30;99.90;;;;;;4975757;28;20057;-69
2022/07/09 05:44:03;;;;;;;11.27;4.07;;;18.30;99.90;;;;;;4976527;28;20051;-69
2022/07/09 05:46:29;;;;;;;10.00;3.77;;;18.30;99.90;;;;;;4976687;28;20113;-69
2022/07/09 05:48:55;;;;;;;10.90;3.40;;;18.30;99.90;;;;;;4975825;28;20406;-69
2022/07/09 05:51:22;;;;;;;8.93;3.60;;;18.30;99.90;;;;;;4976989;28;20057;-69
2022/07/09 05:53:47;;;;;;;12.27;3.43;;;18.30;99.90;;;;;;4975488;28;20043;-70
2022/07/09 05:56:13;;;;;;;7.80;3.20;;;18.30;99.90;;;;;;4976747;28;20043;-69
2022/07/09 05:58:39;;;;;;;8.87;3.57;;;18.30;99.90;;;;;;4976600;28;20050;-69
2022/07/09 06:01:06;;;;;;;8.03;3.30;;;18.40;99.90;;;;;;4976173;28;20046;-70
2022/07/09 06:03:32;;;;;;;7.30;3.30;;;18.40;99.90;;;;;;4976275;28;20046;-70
2022/07/09 06:05:57;;;;;;;6.30;3.20;;;18.40;99.90;;;;;;4976142;28;20097;-70
2022/07/09 06:08:24;;;;;;;7.57;3.30;;;18.40;99.90;;;;;;4976691;28;20074;-69
2022/07/09 06:10:50;;;;;;;7.17;3.47;;;18.50;99.90;;;;;;4976126;28;20082;-70
2022/07/09 06:13:16;;;;;;;9.30;3.63;;;18.50;99.90;;;;;;4975161;28;20053;-69
2022/07/09 06:15:42;;;;;;;6.70;3.23;;;18.50;99.90;;;;;;4976161;28;20047;-69
2022/07/09 06:18:08;;;;;;;9.53;3.30;;;18.50;99.90;;;;;;4976027;28;20502;-69
2022/07/09 06:20:34;;;;;;;6.47;3.00;;;18.50;99.90;;;;;;4975298;28;20046;-69
2022/07/09 06:22:59;;;;;;;8.27;3.50;;;18.60;99.90;;;;;;4975964;28;20439;-69
2022/07/09 06:25:25;;;;;;;7.40;3.37;;;18.60;99.90;;;;;;4976378;28;20043;-69
2022/07/09 06:27:51;;;;;;;8.10;3.13;;;18.60;99.90;;;;;;4975896;28;20113;-70
2022/07/09 06:30:16;;;;;;;8.27;3.63;;;18.60;99.90;;;;;;4976032;28;20062;-70
2022/07/09 06:32:42;;;;;;;6.40;3.17;;;18.60;99.90;;;;;;4974939;28;20050;-69
2022/07/09 06:35:08;;;;;;;10.43;3.23;;;18.70;99.90;;;;;;4974656;28;20051;-69
2022/07/09 06:37:34;;;;;;;7.63;2.90;;;18.70;99.90;;;;;;4975939;28;20050;-69
2022/07/09 06:39:59;;;;;;;8.57;2.93;;;18.70;99.90;;;;;;4974621;28;20058;-70
2022/07/09 06:42:26;;;;;;;6.13;2.93;;;18.70;99.90;;;;;;4975557;28;20047;-69
2022/07/09 06:44:51;;;;;;;8.07;2.87;;;18.80;99.90;;;;;;4975662;28;20051;-69
2022/07/09 06:47:17;;;;;;;10.13;3.10;;;18.80;99.90;;;;;;4975390;28;20042;-69
2022/07/09 06:49:43;;;;;;;8.27;3.20;;;18.90;99.90;;;;;;4975960;28;20133;-69
2022/07/09 06:52:09;;;;;;;9.60;3.03;;;19.00;99.90;;;;;;4974476;28;20150;-70
2022/07/09 06:54:35;;;;;;;6.43;2.77;;;19.00;99.90;;;;;;4975632;28;20046;-70
2022/07/09 06:57:02;;;;;;;5.60;2.60;;;19.10;99.90;;;;;;4975311;28;20046;-70
2022/07/09 06:59:29;;;;;;;9.73;2.80;;;19.10;99.90;;;;;;4975411;28;20105;-69
2022/07/09 07:01:54;;;;;;;7.70;2.83;;;19.20;99.90;;;;;;4973577;28;20042;-70
2022/07/09 07:04:20;;;;;;;6.13;2.40;;;19.10;99.90;;;;;;4975472;28;20105;-69
2022/07/09 07:06:49;;;;;;;7.27;2.20;;;19.10;99.90;;;;;;4975428;28;20054;-69
2022/07/09 07:09:18;;;;;;;7.07;2.63;;;19.20;99.90;;;;;;4974983;28;20086;-69
2022/07/09 07:11:45;;;;;;;7.40;2.30;;;19.10;99.90;;;;;;4975513;28;20057;-70
2022/07/09 07:14:11;;;;;;;7.17;2.20;;;19.10;99.90;;;;;;4974833;28;20113;-69
2022/07/09 07:16:37;;;;;;;9.23;2.43;;;19.10;99.90;;;;;;4975214;28;20043;-69
2022/07/09 07:19:02;;;;;;;8.93;2.40;;;19.20;99.90;;;;;;4975150;28;20047;-69
2022/07/09 07:21:28;;;;;;;6.60;2.20;;;19.20;99.90;;;;;;4975108;28;20514;-69
2022/07/09 07:23:54;;;;;;;7.20;2.20;;;19.20;99.90;;;;;;4974955;28;19922;-69
2022/07/09 07:26:19;;;;;;;10.23;2.27;;;19.20;99.90;;;;;;4974677;28;20047;-69
2022/07/09 07:28:45;;;;;;;6.70;2.23;;;19.30;99.90;;;;;;4974936;28;20137;-69
2022/07/09 07:31:11;;;;;;;10.80;2.83;;;19.30;99.90;;;;;;4974709;28;20104;-69
2022/07/09 07:33:38;;;;;;;9.53;2.43;;;19.30;99.90;;;;;;4975249;28;20606;-69
2022/07/09 07:36:04;;;;;;;6.43;2.50;;;19.40;99.90;;;;;;4973797;28;20055;-69
2022/07/09 07:38:30;;;;;;;5.90;2.53;;;19.60;99.90;;;;;;4973697;28;20047;-69
2022/07/09 07:40:55;;;;;;;14.17;2.77;;;19.80;99.90;;;;;;4974818;28;20089;-69
2022/07/09 07:43:21;;;;;;;8.80;2.17;;;20.10;99.90;;;;;;4974295;28;20105;-69
2022/07/09 07:45:47;;;;;;;9.30;2.77;;;21.10;99.90;;;;;;4974765;28;20434;-69
2022/07/09 07:48:13;;;;;;;8.20;2.30;;;22.30;99.90;;;;;;4974488;28;20070;-69
2022/07/09 07:50:38;;;;;;;14.13;2.00;;;22.90;99.90;;;;;;4974803;28;20398;-70
2022/07/09 07:53:06;;;;;;;10.83;2.40;;;23.70;99.90;;;;;;4974294;28;20047;-70
2022/07/09 07:55:32;;;;;;;9.57;2.37;;;24.70;99.90;;;;;;4974448;28;20050;-70
2022/07/09 07:57:58;;;;;;;6.40;2.07;;;24.80;99.90;;;;;;4974313;28;20043;-69
2022/07/09 08:00:24;;;;;;;6.97;1.90;;;24.60;99.90;;;;;;4973053;28;20407;-70
2022/07/09 08:02:50;;;;;;;7.27;1.90;;;23.90;99.90;;;;;;4974353;28;20046;-69
2022/07/09 08:05:16;;;;;;;6.77;2.60;;;23.30;99.90;;;;;;4974152;28;20057;-70
2022/07/09 08:07:42;;;;;;;6.53;2.20;;;23.00;99.90;;;;;;4974234;28;20057;-69
2022/07/09 08:10:08;;;;;;;7.23;1.90;;;22.90;99.90;;;;;;4973970;28;20051;-70
2022/07/09 08:12:34;;;;;;;9.70;2.33;;;23.50;99.90;;;;;;4973858;28;20054;-70
2022/07/09 08:15:00;;;;;;;6.23;1.93;;;24.40;99.90;;;;;;4974280;28;20207;-70
2022/07/09 08:17:26;;;;;;;7.27;1.70;;;;;;;;;;4973967;28;20053;-70
2022/07/09 08:19:52;;;;;;;6.47;1.80;;;24.40;99.90;;;;;;4974166;28;20043;-70
2022/07/09 08:22:17;;;;;;;7.93;2.07;;;24.40;99.90;;;;;;4973747;28;20073;-70
2022/07/09 08:24:43;;;;;;;6.40;1.67;;;24.80;99.90;;;;;;4957103;28;20043;-70
2022/07/09 08:27:09;;;;;;;6.83;1.97;;;;;;;;;;4973675;28;20050;-70
2022/07/09 08:29:36;;;;;;;8.13;2.10;;;;;;;;;;4973967;28;20058;-70
2022/07/09 08:32:02;;;;;;;6.97;1.77;;;;;;;;;;4974071;28;20098;-70
2022/07/09 08:34:28;;;;;;;8.07;2.03;;;24.20;97.80;;;;;;4973841;28;20050;-70
2022/07/09 08:36:53;;;;;;;6.60;2.20;;;24.30;98.80;;;;;;4973991;28;20054;-70
2022/07/09 08:39:19;;;;;;;5.83;1.70;;;24.90;99.30;;;;;;4973698;28;20105;-70
2022/07/09 08:41:45;;;;;;;6.87;1.90;;;26.00;96.00;;;;;;4973699;28;20051;-69
2022/07/09 08:44:12;;;;;;;7.43;2.10;;;26.70;93.40;;;;;;4973660;28;20498;-70
2022/07/09 08:46:38;;;;;;;8.37;2.17;;;26.60;90.90;;;;;;4973825;28;20046;-70
2022/07/09 08:49:06;;;;;;;6.80;1.67;;;26.80;90.30;;;;;;4973675;28;20042;-71
2022/07/09 08:51:33;;;;;;;6.07;1.70;;;27.00;88.00;;;;;;4973448;28;20558;-70
2022/07/09 08:54:01;;;;;;;7.13;2.33;;;26.70;83.70;;;;;;4973709;28;20051;-69
2022/07/09 08:56:27;;;;;;;8.37;2.30;;;26.40;79.90;;;;;;4973406;28;20499;-70
2022/07/09 08:58:52;;;;;;;8.70;1.90;;;26.00;82.70;;;;;;4973845;28;20054;-70
2022/07/09 09:01:18;;;;;;;8.03;2.07;;;;;;;;;;4973464;28;20491;-70
2022/07/09 09:03:45;;;;;;;8.83;2.10;;;25.40;82.80;;;;;;4973482;28;20047;-69
2022/07/09 09:06:12;;;;;;;6.30;1.93;;;25.20;83.20;;;;;;4973103;28;20483;-70
2022/07/09 09:08:43;;;;;;;7.37;1.73;;;25.00;83.90;;;;;;4973581;28;20053;-70
2022/07/09 09:11:13;;;;;;;6.67;1.80;;;;;;;;;;4973593;28;20487;-69
2022/07/09 09:13:43;;;;;;;7.90;1.90;;;;;;;;;;4973795;28;20039;-69
2022/07/09 09:16:11;;;;;;;6.20;1.83;;;24.00;88.80;;;;;;4973709;28;20050;-68
2022/07/09 09:18:41;;;;;;;8.67;1.87;;;24.00;90.90;;;;;;4973708;28;20072;-69
2022/07/09 09:21:08;;;;;;;7.03;1.70;;;23.80;91.30;;;;;;4973509;28;20097;-70
2022/07/09 09:23:44;;;;;;;7.60;1.90;;;23.70;91.90;;;;;;4972187;28;20055;-69
2022/07/09 09:26:19;;;;;;;9.20;2.07;;;23.60;92.00;;;;;;4976448;28;20051;-69
2022/07/09 09:28:49;;;;;;;;;;;23.60;93.10;;;;;;4977850;28;20063;-70
2022/07/09 09:31:26;;;;;;;6.33;1.80;;;23.50;95.50;;;;;;4976867;28;19922;-70
2022/07/09 09:33:56;;;;;;;6.37;1.90;;;23.70;93.20;;;;;;4976879;28;20558;-72
2022/07/09 09:36:42;;;;;;;6.33;1.80;;;23.70;92.30;;;;;;4976876;28;20055;-74
2022/07/09 09:39:21;;;;;;;7.57;1.93;;;23.70;90.60;;;;;;4975793;28;20053;-74
2022/07/09 09:41:52;;;;;;;6.43;1.67;;;23.60;91.50;;;;;;4976816;28;20053;-72
2022/07/09 09:44:26;;;;;;;6.10;1.80;;;23.60;91.00;;;;;;4976504;28;20117;-72
2022/07/09 09:46:53;;;;;;;4.70;1.40;;;23.70;90.10;;;;;;4961289;28;20051;-74
2022/07/09 09:49:20;;;;;;;8.17;1.70;;;23.70;90.10;;;;;;4956989;28;20051;-75
2022/07/09 09:51:49;;;;;;;5.97;1.67;;;23.80;89.60;;;;;;4957422;28;20043;-71
2022/07/09 09:54:17;;;;;;;7.27;1.80;;;23.70;91.30;;;;;;4957089;28;20102;-73
2022/07/09 09:56:43;;;;;;;10.53;2.17;;;23.70;92.30;;;;;;4957227;28;20047;-73
2022/07/09 09:59:10;;;;;;;6.87;2.00;;;;;;;;;;4957048;28;20047;-66
2022/07/09 10:01:39;;;;;;;6.23;2.07;;;23.30;92.70;;;;;;4955914;29;20099;-72
2022/07/09 10:04:05;;;;;;;5.83;1.60;;;23.30;93.00;;;;;;4957230;28;20051;-73
2022/07/09 10:06:36;;;;;;;10.37;2.40;;;23.20;93.20;;;;;;4956928;28;20455;-72
2022/07/09 10:09:07;;;;;;;7.83;2.23;;;23.30;92.70;;;;;;4957138;28;20070;-72
2022/07/09 10:11:39;;;;;;;7.20;1.77;;;23.30;93.30;;;;;;4956735;28;20403;-68
2022/07/09 10:14:05;;;;;;;7.30;1.90;;;23.30;93.70;;;;;;4957230;28;20055;-68
2022/07/09 10:16:39;;;;;;;8.23;2.13;;;23.40;93.40;;;;;;4956848;28;20070;-70
2022/07/09 10:19:05;;;;;;;9.48;2.50;;;23.40;93.60;;;;;;4956951;28;20059;-67
2022/07/09 10:21:36;;;;;;;6.93;2.37;;;23.40;93.20;;;;;;4956595;28;20134;-69
2022/07/09 10:24:08;;;;;;;8.43;2.30;;;23.30;93.40;;;;;;4956709;28;20143;-72
2022/07/09 10:26:42;;;;;;;9.80;2.30;;;23.10;95.80;;;;;;4956750;28;20103;-72
2022/07/09 10:29:26;;;;;;;9.57;2.13;;;23.10;95.90;;;;;;4955548;29;20435;-72
2022/07/09 10:31:55;;;;;;;10.87;1.97;;;22.80;97.40;;;;;;4956707;28;20047;-73
2022/07/09 10:34:34;;;;;;;12.10;2.40;;;22.60;99.10;;;;;;4956247;28;20055;-72
2022/07/09 10:37:05;;;;;;;10.93;2.60;;;22.50;99.50;;;;;;4956586;28;20055;-69
2022/07/09 10:39:31;;;;;;;9.90;2.77;;;22.50;99.20;;;;;;4956594;29;20054;-69
2022/07/09 10:42:03;;;;;;;11.50;2.17;;;22.40;99.30;;;;;;4956539;28;20056;-69
2022/07/09 10:44:37;;;;;;;12.23;2.20;;;22.40;99.70;;;;;;4956169;29;20066;-69
2022/07/09 10:47:05;;;;;;;10.50;1.90;;;22.30;98.10;;;;;;4955854;29;20058;-69
2022/07/09 10:49:33;;;;;;;10.37;2.40;;;22.00;99.20;;;;;;4956237;28;20054;-70
2022/07/09 10:51:59;;;;;;;11.60;2.63;;;21.90;99.30;;;;;;4956383;28;20048;-70
2022/07/09 10:54:25;;;;;;;12.63;2.20;;;21.80;99.10;;;;;;4955960;29;20389;-70
2022/07/09 10:56:53;;;;;;;12.53;2.03;;;21.60;97.00;;;;;;4954993;29;20043;-69
2022/07/09 10:59:19;;;;;;;9.33;2.60;;;21.40;98.80;;;;;;4956162;28;20054;-69
2022/07/09 11:01:45;;;;;;;9.10;2.70;;;21.30;99.90;;;;;;4955648;28;20043;-69
2022/07/09 11:04:14;;;;;;;9.70;2.40;;;21.30;99.90;;;;;;4956402;28;20043;-69
2022/07/09 11:06:47;;;;;;;7.03;2.00;;;21.40;99.20;;;;;;4955898;28;20065;-69
2022/07/09 11:09:13;;;;;;;13.57;2.00;;;21.40;97.70;;;;;;4956035;28;20051;-69
2022/07/09 11:11:42;;;;;;;8.73;2.30;;;21.40;97.90;;;;;;4955697;28;20407;-69
2022/07/09 11:14:12;;;;;;;9.50;1.80;;;21.50;97.50;;;;;;4954846;29;20114;-69
2022/07/09 11:16:38;;;;;;;8.90;1.80;;;21.50;96.30;;;;;;4955794;28;20102;-68
2022/07/09 11:19:14;;;;;;;7.87;1.80;;;21.40;95.50;;;;;;4955680;28;20403;-70
2022/07/09 11:21:41;;;;;;;9.47;1.90;;;21.30;94.30;;;;;;4955327;28;20570;-70
2022/07/09 11:24:14;;;;;;;7.07;1.80;;;21.20;96.10;;;;;;4955686;28;20055;-70
2022/07/09 11:26:40;;;;;;;8.17;2.17;;;21.20;94.70;;;;;;4955301;28;20051;-71
2022/07/09 11:29:10;;;;;;;9.20;2.10;;;21.10;95.40;;;;;;4955516;28;20680;-71
2022/07/09 11:31:36;;;;;;;8.97;2.00;;;21.20;94.30;;;;;;4955546;28;20054;-75
2022/07/09 11:34:12;;;;;;;7.03;2.17;;;21.30;94.90;;;;;;4955633;28;20118;-72
2022/07/09 11:36:46;;;;;;;8.07;2.13;;;21.50;93.40;;;;;;4955143;28;20138;-68
2022/07/09 11:39:29;;;;;;;9.13;2.53;;;21.50;90.50;;;;;;4955483;28;20047;-71
2022/07/09 11:41:57;;;;;;;7.47;1.70;;;21.50;87.20;;;;;;4955457;28;20077;-71
2022/07/09 11:44:34;;;;;;;8.97;1.67;;;21.50;86.00;;;;;;4955440;28;20499;-70
2022/07/09 11:47:10;;;;;;;6.00;1.83;;;21.50;86.60;;;;;;4954737;28;20518;-74
2022/07/09 11:49:41;;;;;;;7.37;1.60;;;21.70;84.20;;;;;;4954848;28;20055;-69
2022/07/09 11:52:21;;;;;;;7.87;1.43;;;21.60;78.70;;;;;;4955303;28;20047;-70
2022/07/09 11:55:02;;;;;;;5.00;1.30;;;21.60;73.60;;;;;;4955013;28;20063;-70
2022/07/09 11:57:29;;;;;;;10.20;1.90;;;21.50;76.40;;;;;;4955092;28;20055;-67
2022/07/09 11:59:57;;;;;;;6.00;1.83;;;21.40;76.60;;;;;;4954997;28;20048;-70
2022/07/09 12:02:23;;;;;;;6.70;1.47;;;21.40;81.60;;;;;;4955116;28;20455;-68
2022/07/09 12:04:49;;;;;;;7.80;2.47;;;21.40;81.50;;;;;;4954675;29;20058;-68
2022/07/09 12:07:14;;;;;;;8.27;2.17;;;21.30;80.90;;;;;;4953885;29;20043;-68
2022/07/09 12:09:41;;;;;;;6.93;1.83;;;21.20;81.10;;;;;;4953592;29;20126;-69
2022/07/09 12:12:07;;;;;;;5.20;1.53;;;21.10;81.30;;;;;;4954740;29;20059;-68
2022/07/09 12:14:32;;;;;;;7.87;1.60;;;21.10;80.80;;;;;;4953475;29;20066;-69
2022/07/09 12:16:58;;;;;;;5.93;2.50;;;21.00;80.90;;;;;;4955220;28;20055;-68
2022/07/09 12:19:24;;;;;;;5.33;1.60;;;20.80;80.40;;;;;;4955011;29;20043;-69
2022/07/09 12:21:50;;;;;;;8.47;1.60;;;20.80;82.40;;;;;;4954578;29;20077;-69
2022/07/09 12:24:16;;;;;;;3.73;1.40;;;20.80;81.40;;;;;;4953823;29;20392;-69
2022/07/09 12:26:42;;;;;;;6.97;1.83;;;20.90;80.70;;;;;;4953422;29;20166;-69
2022/07/09 12:29:07;;;;;;;7.07;1.60;;;20.80;80.50;;;;;;4954766;29;20065;-69
2022/07/09 12:31:36;;;;;;;5.83;1.43;;;20.70;81.40;;;;;;4954533;29;20139;-71
2022/07/09 12:34:03;;;;;;;7.50;2.03;;;20.60;83.70;;;;;;4954808;29;20073;-71
2022/07/09 12:36:29;;;;;;;5.33;1.30;;;20.60;83.20;;;;;;4954816;28;20137;-73
2022/07/09 12:38:54;;;;;;;6.07;2.03;;;20.60;84.40;;;;;;4954519;29;20497;-71
2022/07/09 12:41:20;;;;;;;7.63;2.03;;;20.70;85.90;;;;;;4954680;29;20098;-71
2022/07/09 12:43:46;;;;;;;3.90;1.23;;;20.80;86.10;;;;;;4961773;28;20118;-70